sensor_id;sensor_type;location;lat;lon;timestamp;P1;durP1;ratioP1;P2;durP2;ratioP2
70052;SDS011;57398;52.032;4.376;2024-03-06T00:01:11;1.40;;;0.90;;
70052;SDS011;57398;52.032;4.376;2024-03-06T00:04:00;1.30;;;0.73;;
70052;SDS011;57398;52.032;4.376;2024-03-06T00:06:50;1.30;;;0.80;;
70052;SDS011;57398;52.032;4.376;2024-03-06T00:09:40;1.50;;;1.08;;
70052;SDS011;57398;52.032;4.376;2024-03-06T00:12:29;1.30;;;0.80;;
70052;SDS011;57398;52.032;4.376;2024-03-06T00:15:18;1.50;;;1.02;;
70052;SDS011;57398;52.032;4.376;2024-03-06T00:18:06;1.58;;;1.10;;
70052;SDS011;57398;52.032;4.376;2024-03-06T00:20:54;1.40;;;0.90;;
70052;SDS011;57398;52.032;4.376;2024-03-06T00:23:42;1.50;;;1.00;;
70052;SDS011;57398;52.032;4.376;2024-03-06T00:26:32;1.27;;;0.70;;
70052;SDS011;57398;52.032;4.376;2024-03-06T00:29:22;1.50;;;1.00;;
70052;SDS011;57398;52.032;4.376;2024-03-06T00:32:10;1.40;;;0.90;;
70052;SDS011;57398;52.032;4.376;2024-03-06T00:34:58;1.50;;;1.00;;
70052;SDS011;57398;52.032;4.376;2024-03-06T00:37:46;1.40;;;0.90;;
70052;SDS011;57398;52.032;4.376;2024-03-06T00:40:35;1.40;;;0.90;;
70052;SDS011;57398;52.032;4.376;2024-03-06T00:43:23;1.40;;;0.90;;
70052;SDS011;57398;52.032;4.376;2024-03-06T00:46:13;1.38;;;0.82;;
70052;SDS011;57398;52.032;4.376;2024-03-06T00:49:01;1.40;;;0.90;;
70052;SDS011;57398;52.032;4.376;2024-03-06T00:51:49;1.40;;;0.90;;
70052;SDS011;57398;52.032;4.376;2024-03-06T00:54:37;1.48;;;1.00;;
70052;SDS011;57398;52.032;4.376;2024-03-06T00:57:25;1.40;;;0.90;;
70052;SDS011;57398;52.032;4.376;2024-03-06T01:00:14;1.40;;;0.90;;
70052;SDS011;57398;52.032;4.376;2024-03-06T01:03:04;1.40;;;0.87;;
70052;SDS011;57398;52.032;4.376;2024-03-06T01:05:53;1.40;;;0.90;;
70052;SDS011;57398;52.032;4.376;2024-03-06T01:08:41;1.40;;;0.90;;
70052;SDS011;57398;52.032;4.376;2024-03-06T01:11:30;1.40;;;0.90;;
70052;SDS011;57398;52.032;4.376;2024-03-06T01:14:18;1.30;;;0.80;;
70052;SDS011;57398;52.032;4.376;2024-03-06T01:17:06;1.23;;;0.70;;
70052;SDS011;57398;52.032;4.376;2024-03-06T01:19:55;1.40;;;0.90;;
70052;SDS011;57398;52.032;4.376;2024-03-06T01:22:45;1.30;;;0.80;;
70052;SDS011;57398;52.032;4.376;2024-03-06T01:25:33;1.25;;;0.70;;
70052;SDS011;57398;52.032;4.376;2024-03-06T01:28:22;1.38;;;0.80;;
70052;SDS011;57398;52.032;4.376;2024-03-06T01:31:10;1.40;;;0.90;;
70052;SDS011;57398;52.032;4.376;2024-03-06T01:33:58;1.33;;;0.80;;
70052;SDS011;57398;52.032;4.376;2024-03-06T01:36:47;1.48;;;0.98;;
70052;SDS011;57398;52.032;4.376;2024-03-06T01:39:36;1.30;;;0.80;;
70052;SDS011;57398;52.032;4.376;2024-03-06T01:42:24;1.45;;;0.93;;
70052;SDS011;57398;52.032;4.376;2024-03-06T01:45:12;1.40;;;0.93;;
70052;SDS011;57398;52.032;4.376;2024-03-06T01:48:00;1.30;;;0.80;;
70052;SDS011;57398;52.032;4.376;2024-03-06T01:50:49;1.52;;;1.10;;
70052;SDS011;57398;52.032;4.376;2024-03-06T01:53:38;1.40;;;0.90;;
70052;SDS011;57398;52.032;4.376;2024-03-06T01:56:27;1.50;;;1.00;;
70052;SDS011;57398;52.032;4.376;2024-03-06T01:59:16;1.60;;;1.13;;
70052;SDS011;57398;52.032;4.376;2024-03-06T02:02:21;1.50;;;0.98;;
70052;SDS011;57398;52.032;4.376;2024-03-06T02:05:09;1.60;;;1.10;;
70052;SDS011;57398;52.032;4.376;2024-03-06T02:07:58;1.50;;;1.00;;
70052;SDS011;57398;52.032;4.376;2024-03-06T02:10:48;1.33;;;0.80;;
70052;SDS011;57398;52.032;4.376;2024-03-06T02:13:36;1.30;;;0.80;;
70052;SDS011;57398;52.032;4.376;2024-03-06T02:16:24;1.45;;;0.98;;
70052;SDS011;57398;52.032;4.376;2024-03-06T02:19:13;1.60;;;1.10;;
70052;SDS011;57398;52.032;4.376;2024-03-06T02:22:03;1.40;;;0.95;;
70052;SDS011;57398;52.032;4.376;2024-03-06T02:24:52;1.30;;;0.80;;
70052;SDS011;57398;52.032;4.376;2024-03-06T02:27:40;1.40;;;0.90;;
70052;SDS011;57398;52.032;4.376;2024-03-06T02:30:28;1.35;;;0.88;;
70052;SDS011;57398;52.032;4.376;2024-03-06T02:33:17;1.40;;;0.90;;
70052;SDS011;57398;52.032;4.376;2024-03-06T02:36:06;1.50;;;1.00;;
70052;SDS011;57398;52.032;4.376;2024-03-06T02:38:56;1.30;;;0.80;;
70052;SDS011;57398;52.032;4.376;2024-03-06T02:41:44;1.50;;;1.00;;
70052;SDS011;57398;52.032;4.376;2024-03-06T02:44:32;1.50;;;1.00;;
70052;SDS011;57398;52.032;4.376;2024-03-06T02:47:20;1.40;;;0.88;;
70052;SDS011;57398;52.032;4.376;2024-03-06T02:50:08;1.50;;;1.00;;
70052;SDS011;57398;52.032;4.376;2024-03-06T02:52:58;1.55;;;1.08;;
70052;SDS011;57398;52.032;4.376;2024-03-06T02:55:47;1.50;;;0.93;;
70052;SDS011;57398;52.032;4.376;2024-03-06T02:58:36;1.50;;;1.00;;
70052;SDS011;57398;52.032;4.376;2024-03-06T03:01:24;1.50;;;1.00;;
70052;SDS011;57398;52.032;4.376;2024-03-06T03:04:12;1.50;;;1.00;;
70052;SDS011;57398;52.032;4.376;2024-03-06T03:07:00;1.40;;;0.90;;
70052;SDS011;57398;52.032;4.376;2024-03-06T03:09:48;1.40;;;0.90;;
70052;SDS011;57398;52.032;4.376;2024-03-06T03:12:39;1.30;;;0.80;;
70052;SDS011;57398;52.032;4.376;2024-03-06T03:15:27;1.50;;;1.00;;
70052;SDS011;57398;52.032;4.376;2024-03-06T03:18:15;1.50;;;1.00;;
70052;SDS011;57398;52.032;4.376;2024-03-06T03:21:03;1.50;;;1.00;;
70052;SDS011;57398;52.032;4.376;2024-03-06T03:23:56;1.40;;;0.90;;
70052;SDS011;57398;52.032;4.376;2024-03-06T03:26:44;1.40;;;0.90;;
70052;SDS011;57398;52.032;4.376;2024-03-06T03:29:34;1.42;;;0.93;;
70052;SDS011;57398;52.032;4.376;2024-03-06T03:32:22;1.40;;;0.80;;
70052;SDS011;57398;52.032;4.376;2024-03-06T03:35:10;1.30;;;0.80;;
70052;SDS011;57398;52.032;4.376;2024-03-06T03:37:58;1.40;;;0.90;;
70052;SDS011;57398;52.032;4.376;2024-03-06T03:40:47;1.40;;;0.90;;
70052;SDS011;57398;52.032;4.376;2024-03-06T03:43:35;1.40;;;0.90;;
70052;SDS011;57398;52.032;4.376;2024-03-06T03:46:24;1.40;;;0.90;;
70052;SDS011;57398;52.032;4.376;2024-03-06T03:49:12;1.40;;;0.90;;
70052;SDS011;57398;52.032;4.376;2024-03-06T03:52:01;1.30;;;0.80;;
70052;SDS011;57398;52.032;4.376;2024-03-06T03:54:49;1.27;;;0.77;;
70052;SDS011;57398;52.032;4.376;2024-03-06T03:57:38;1.40;;;0.90;;
70052;SDS011;57398;52.032;4.376;2024-03-06T04:00:26;1.40;;;0.90;;
70052;SDS011;57398;52.032;4.376;2024-03-06T04:03:16;1.23;;;0.70;;
70052;SDS011;57398;52.032;4.376;2024-03-06T04:06:04;1.40;;;0.90;;
70052;SDS011;57398;52.032;4.376;2024-03-06T04:08:53;1.50;;;1.00;;
70052;SDS011;57398;52.032;4.376;2024-03-06T04:11:41;1.50;;;1.00;;
70052;SDS011;57398;52.032;4.376;2024-03-06T04:14:29;1.30;;;0.70;;
70052;SDS011;57398;52.032;4.376;2024-03-06T04:17:18;1.23;;;0.73;;
70052;SDS011;57398;52.032;4.376;2024-03-06T04:20:07;1.30;;;0.80;;
70052;SDS011;57398;52.032;4.376;2024-03-06T04:22:58;1.30;;;0.80;;
70052;SDS011;57398;52.032;4.376;2024-03-06T04:25:46;1.30;;;0.80;;
70052;SDS011;57398;52.032;4.376;2024-03-06T04:28:34;1.20;;;0.60;;
70052;SDS011;57398;52.032;4.376;2024-03-06T04:31:23;1.20;;;0.70;;
70052;SDS011;57398;52.032;4.376;2024-03-06T04:34:11;1.40;;;0.90;;
70052;SDS011;57398;52.032;4.376;2024-03-06T04:37:01;1.50;;;1.00;;
70052;SDS011;57398;52.032;4.376;2024-03-06T04:39:49;1.50;;;1.00;;
70052;SDS011;57398;52.032;4.376;2024-03-06T04:42:38;1.50;;;1.00;;
70052;SDS011;57398;52.032;4.376;2024-03-06T04:45:26;1.58;;;1.10;;
70052;SDS011;57398;52.032;4.376;2024-03-06T04:48:15;1.70;;;1.20;;
70052;SDS011;57398;52.032;4.376;2024-03-06T04:51:03;1.70;;;1.20;;
70052;SDS011;57398;52.032;4.376;2024-03-06T04:53:53;1.70;;;1.20;;
70052;SDS011;57398;52.032;4.376;2024-03-06T04:56:41;1.60;;;1.15;;
70052;SDS011;57398;52.032;4.376;2024-03-06T04:59:30;1.70;;;1.20;;
70052;SDS011;57398;52.032;4.376;2024-03-06T05:02:18;1.70;;;1.20;;
70052;SDS011;57398;52.032;4.376;2024-03-06T05:05:06;1.70;;;1.20;;
70052;SDS011;57398;52.032;4.376;2024-03-06T05:08:12;1.70;;;1.20;;
70052;SDS011;57398;52.032;4.376;2024-03-06T05:11:19;1.60;;;1.10;;
70052;SDS011;57398;52.032;4.376;2024-03-06T05:14:24;1.60;;;1.13;;
70052;SDS011;57398;52.032;4.376;2024-03-06T05:17:30;1.70;;;1.27;;
70052;SDS011;57398;52.032;4.376;2024-03-06T05:20:36;1.60;;;1.10;;
70052;SDS011;57398;52.032;4.376;2024-03-06T05:23:42;1.60;;;1.13;;
70052;SDS011;57398;52.032;4.376;2024-03-06T05:26:49;1.58;;;1.10;;
70052;SDS011;57398;52.032;4.376;2024-03-06T05:29:55;1.60;;;1.20;;
70052;SDS011;57398;52.032;4.376;2024-03-06T05:33:01;1.50;;;1.00;;
70052;SDS011;57398;52.032;4.376;2024-03-06T05:36:07;1.38;;;0.80;;
70052;SDS011;57398;52.032;4.376;2024-03-06T05:39:12;1.50;;;1.00;;
70052;SDS011;57398;52.032;4.376;2024-03-06T05:42:20;1.50;;;1.00;;
70052;SDS011;57398;52.032;4.376;2024-03-06T05:45:25;1.50;;;1.00;;
70052;SDS011;57398;52.032;4.376;2024-03-06T05:48:31;1.60;;;1.13;;
70052;SDS011;57398;52.032;4.376;2024-03-06T05:51:37;1.50;;;1.00;;
70052;SDS011;57398;52.032;4.376;2024-03-06T05:54:42;1.45;;;1.00;;
70052;SDS011;57398;52.032;4.376;2024-03-06T05:57:49;1.30;;;0.80;;
70052;SDS011;57398;52.032;4.376;2024-03-06T06:01:00;1.50;;;1.02;;
70052;SDS011;57398;52.032;4.376;2024-03-06T06:03:50;1.43;;;0.93;;
70052;SDS011;57398;52.032;4.376;2024-03-06T06:06:38;1.65;;;1.13;;
70052;SDS011;57398;52.032;4.376;2024-03-06T06:09:26;1.60;;;1.10;;
70052;SDS011;57398;52.032;4.376;2024-03-06T06:12:15;1.50;;;1.00;;
70052;SDS011;57398;52.032;4.376;2024-03-06T06:15:05;1.50;;;1.02;;
70052;SDS011;57398;52.032;4.376;2024-03-06T06:17:54;1.43;;;0.93;;
70052;SDS011;57398;52.032;4.376;2024-03-06T06:20:42;1.50;;;1.00;;
70052;SDS011;57398;52.032;4.376;2024-03-06T06:23:30;1.60;;;1.10;;
70052;SDS011;57398;52.032;4.376;2024-03-06T06:26:18;1.77;;;1.30;;
70052;SDS011;57398;52.032;4.376;2024-03-06T06:29:07;1.60;;;1.10;;
70052;SDS011;57398;52.032;4.376;2024-03-06T06:31:57;1.70;;;1.20;;
70052;SDS011;57398;52.032;4.376;2024-03-06T06:34:45;1.60;;;1.15;;
70052;SDS011;57398;52.032;4.376;2024-03-06T06:37:33;1.50;;;1.00;;
70052;SDS011;57398;52.032;4.376;2024-03-06T06:40:21;1.50;;;1.08;;
70052;SDS011;57398;52.032;4.376;2024-03-06T06:43:10;1.70;;;1.20;;
70052;SDS011;57398;52.032;4.376;2024-03-06T06:45:58;1.60;;;1.10;;
70052;SDS011;57398;52.032;4.376;2024-03-06T06:48:52;1.45;;;0.95;;
70052;SDS011;57398;52.032;4.376;2024-03-06T06:51:41;1.60;;;1.10;;
70052;SDS011;57398;52.032;4.376;2024-03-06T06:54:29;1.70;;;1.20;;
70052;SDS011;57398;52.032;4.376;2024-03-06T06:57:18;1.30;;;0.75;;
70052;SDS011;57398;52.032;4.376;2024-03-06T07:00:07;1.50;;;1.00;;
70052;SDS011;57398;52.032;4.376;2024-03-06T07:02:58;1.70;;;1.20;;
70052;SDS011;57398;52.032;4.376;2024-03-06T07:05:48;1.60;;;1.15;;
70052;SDS011;57398;52.032;4.376;2024-03-06T07:08:36;1.65;;;1.17;;
70052;SDS011;57398;52.032;4.376;2024-03-06T07:11:25;1.60;;;1.17;;
70052;SDS011;57398;52.032;4.376;2024-03-06T07:14:13;1.50;;;1.03;;
70052;SDS011;57398;52.032;4.376;2024-03-06T07:17:02;1.63;;;1.20;;
70052;SDS011;57398;52.032;4.376;2024-03-06T07:19:51;1.50;;;1.00;;
70052;SDS011;57398;52.032;4.376;2024-03-06T07:22:40;1.40;;;0.90;;
70052;SDS011;57398;52.032;4.376;2024-03-06T07:25:29;1.60;;;1.10;;
70052;SDS011;57398;52.032;4.376;2024-03-06T07:28:17;1.60;;;1.10;;
70052;SDS011;57398;52.032;4.376;2024-03-06T07:31:07;1.40;;;0.88;;
70052;SDS011;57398;52.032;4.376;2024-03-06T07:33:55;1.52;;;1.00;;
70052;SDS011;57398;52.032;4.376;2024-03-06T07:36:43;1.40;;;0.90;;
70052;SDS011;57398;52.032;4.376;2024-03-06T07:39:34;1.30;;;0.70;;
70052;SDS011;57398;52.032;4.376;2024-03-06T07:42:22;1.50;;;1.00;;
70052;SDS011;57398;52.032;4.376;2024-03-06T07:45:10;1.42;;;0.93;;
70052;SDS011;57398;52.032;4.376;2024-03-06T07:47:58;1.15;;;0.57;;
70052;SDS011;57398;52.032;4.376;2024-03-06T07:50:47;1.30;;;0.77;;
70052;SDS011;57398;52.032;4.376;2024-03-06T07:53:35;1.30;;;0.80;;
70052;SDS011;57398;52.032;4.376;2024-03-06T07:56:25;1.33;;;0.83;;
70052;SDS011;57398;52.032;4.376;2024-03-06T07:59:15;1.40;;;0.90;;
70052;SDS011;57398;52.032;4.376;2024-03-06T08:02:04;1.52;;;1.00;;
70052;SDS011;57398;52.032;4.376;2024-03-06T08:04:53;1.10;;;0.60;;
70052;SDS011;57398;52.032;4.376;2024-03-06T08:07:41;1.60;;;1.10;;
70052;SDS011;57398;52.032;4.376;2024-03-06T08:10:31;1.40;;;0.93;;
70052;SDS011;57398;52.032;4.376;2024-03-06T08:13:21;1.60;;;1.10;;
70052;SDS011;57398;52.032;4.376;2024-03-06T08:16:09;1.38;;;0.82;;
70052;SDS011;57398;52.032;4.376;2024-03-06T08:18:58;1.48;;;0.98;;
70052;SDS011;57398;52.032;4.376;2024-03-06T08:21:46;1.30;;;0.80;;
70052;SDS011;57398;52.032;4.376;2024-03-06T08:24:35;1.50;;;1.03;;
70052;SDS011;57398;52.032;4.376;2024-03-06T08:27:23;1.25;;;0.77;;
70052;SDS011;57398;52.032;4.376;2024-03-06T08:30:12;1.60;;;1.10;;
70052;SDS011;57398;52.032;4.376;2024-03-06T08:33:01;1.50;;;1.00;;
70052;SDS011;57398;52.032;4.376;2024-03-06T08:35:49;1.40;;;0.90;;
70052;SDS011;57398;52.032;4.376;2024-03-06T08:38:37;1.30;;;0.80;;
70052;SDS011;57398;52.032;4.376;2024-03-06T08:41:27;1.30;;;0.73;;
70052;SDS011;57398;52.032;4.376;2024-03-06T08:44:15;1.38;;;0.82;;
70052;SDS011;57398;52.032;4.376;2024-03-06T08:47:05;1.50;;;1.00;;
70052;SDS011;57398;52.032;4.376;2024-03-06T08:49:53;1.30;;;0.77;;
70052;SDS011;57398;52.032;4.376;2024-03-06T08:52:41;1.30;;;0.70;;
70052;SDS011;57398;52.032;4.376;2024-03-06T08:55:30;1.50;;;1.00;;
70052;SDS011;57398;52.032;4.376;2024-03-06T08:58:18;1.30;;;0.73;;
70052;SDS011;57398;52.032;4.376;2024-03-06T09:01:07;1.50;;;1.00;;
70052;SDS011;57398;52.032;4.376;2024-03-06T09:03:57;1.45;;;0.93;;
70052;SDS011;57398;52.032;4.376;2024-03-06T09:06:45;1.60;;;1.07;;
70052;SDS011;57398;52.032;4.376;2024-03-06T09:09:33;1.48;;;0.98;;
70052;SDS011;57398;52.032;4.376;2024-03-06T09:12:21;1.52;;;1.02;;
70052;SDS011;57398;52.032;4.376;2024-03-06T09:15:10;1.35;;;0.80;;
70052;SDS011;57398;52.032;4.376;2024-03-06T09:17:59;1.40;;;0.90;;
70052;SDS011;57398;52.032;4.376;2024-03-06T09:20:48;1.40;;;0.93;;
70052;SDS011;57398;52.032;4.376;2024-03-06T09:23:37;1.50;;;1.00;;
70052;SDS011;57398;52.032;4.376;2024-03-06T09:26:25;1.40;;;0.90;;
70052;SDS011;57398;52.032;4.376;2024-03-06T09:29:13;1.50;;;1.00;;
70052;SDS011;57398;52.032;4.376;2024-03-06T09:32:02;1.40;;;0.90;;
70052;SDS011;57398;52.032;4.376;2024-03-06T09:34:50;1.47;;;0.97;;
70052;SDS011;57398;52.032;4.376;2024-03-06T09:37:40;1.50;;;1.00;;
70052;SDS011;57398;52.032;4.376;2024-03-06T09:40:29;1.42;;;1.00;;
70052;SDS011;57398;52.032;4.376;2024-03-06T09:43:18;1.30;;;0.80;;
70052;SDS011;57398;52.032;4.376;2024-03-06T09:46:06;1.40;;;0.90;;
70052;SDS011;57398;52.032;4.376;2024-03-06T09:48:54;1.37;;;0.80;;
70052;SDS011;57398;52.032;4.376;2024-03-06T09:51:44;1.50;;;1.00;;
70052;SDS011;57398;52.032;4.376;2024-03-06T09:54:34;1.20;;;0.70;;
70052;SDS011;57398;52.032;4.376;2024-03-06T09:57:22;1.30;;;0.80;;
70052;SDS011;57398;52.032;4.376;2024-03-06T10:00:11;1.30;;;0.80;;
70052;SDS011;57398;52.032;4.376;2024-03-06T10:03:02;1.40;;;0.83;;
70052;SDS011;57398;52.032;4.376;2024-03-06T10:05:52;1.40;;;0.80;;
70052;SDS011;57398;52.032;4.376;2024-03-06T10:08:42;1.30;;;0.70;;
70052;SDS011;57398;52.032;4.376;2024-03-06T10:11:39;1.20;;;0.70;;
70052;SDS011;57398;52.032;4.376;2024-03-06T10:14:29;1.20;;;0.60;;
70052;SDS011;57398;52.032;4.376;2024-03-06T10:17:19;1.20;;;0.60;;
70052;SDS011;57398;52.032;4.376;2024-03-06T10:20:17;1.20;;;0.60;;
70052;SDS011;57398;52.032;4.376;2024-03-06T10:23:07;1.20;;;0.70;;
70052;SDS011;57398;52.032;4.376;2024-03-06T10:25:55;1.17;;;0.60;;
70052;SDS011;57398;52.032;4.376;2024-03-06T10:28:45;1.20;;;0.60;;
70052;SDS011;57398;52.032;4.376;2024-03-06T10:31:33;1.17;;;0.53;;
70052;SDS011;57398;52.032;4.376;2024-03-06T10:34:22;1.17;;;0.60;;
70052;SDS011;57398;52.032;4.376;2024-03-06T10:37:11;1.20;;;0.60;;
70052;SDS011;57398;52.032;4.376;2024-03-06T10:40:01;1.20;;;0.60;;
70052;SDS011;57398;52.032;4.376;2024-03-06T10:42:52;1.20;;;0.60;;
70052;SDS011;57398;52.032;4.376;2024-03-06T10:45:43;1.20;;;0.67;;
70052;SDS011;57398;52.032;4.376;2024-03-06T10:48:35;1.20;;;0.68;;
70052;SDS011;57398;52.032;4.376;2024-03-06T10:51:25;1.20;;;0.60;;
70052;SDS011;57398;52.032;4.376;2024-03-06T10:54:16;1.20;;;0.60;;
70052;SDS011;57398;52.032;4.376;2024-03-06T10:57:05;1.20;;;0.60;;
70052;SDS011;57398;52.032;4.376;2024-03-06T10:59:54;1.30;;;0.80;;
70052;SDS011;57398;52.032;4.376;2024-03-06T11:02:49;1.30;;;0.70;;
70052;SDS011;57398;52.032;4.376;2024-03-06T11:05:41;1.23;;;0.70;;
70052;SDS011;57398;52.032;4.376;2024-03-06T11:08:30;1.30;;;0.70;;
70052;SDS011;57398;52.032;4.376;2024-03-06T11:11:20;1.30;;;0.70;;
70052;SDS011;57398;52.032;4.376;2024-03-06T11:14:09;1.30;;;0.70;;
70052;SDS011;57398;52.032;4.376;2024-03-06T11:16:59;1.30;;;0.80;;
70052;SDS011;57398;52.032;4.376;2024-03-06T11:23:20;1.30;;;0.80;;
70052;SDS011;57398;52.032;4.376;2024-03-06T11:26:11;1.40;;;0.90;;
70052;SDS011;57398;52.032;4.376;2024-03-06T11:29:00;1.33;;;0.80;;
70052;SDS011;57398;52.032;4.376;2024-03-06T11:31:58;1.40;;;0.80;;
70052;SDS011;57398;52.032;4.376;2024-03-06T11:34:49;1.40;;;0.80;;
70052;SDS011;57398;52.032;4.376;2024-03-06T11:37:45;1.40;;;0.90;;
70052;SDS011;57398;52.032;4.376;2024-03-06T11:40:42;1.40;;;0.90;;
70052;SDS011;57398;52.032;4.376;2024-03-06T11:43:31;1.40;;;0.90;;
70052;SDS011;57398;52.032;4.376;2024-03-06T11:46:19;1.20;;;0.70;;
70052;SDS011;57398;52.032;4.376;2024-03-06T11:49:14;1.23;;;0.70;;
70052;SDS011;57398;52.032;4.376;2024-03-06T11:52:04;1.30;;;0.77;;
70052;SDS011;57398;52.032;4.376;2024-03-06T11:54:56;1.23;;;0.70;;
70052;SDS011;57398;52.032;4.376;2024-03-06T11:57:46;1.30;;;0.70;;
70052;SDS011;57398;52.032;4.376;2024-03-06T12:00:34;1.45;;;0.88;;
70052;SDS011;57398;52.032;4.376;2024-03-06T12:03:22;1.30;;;0.70;;
70052;SDS011;57398;52.032;4.376;2024-03-06T12:06:11;1.30;;;0.73;;
70052;SDS011;57398;52.032;4.376;2024-03-06T12:09:02;1.20;;;0.70;;
70052;SDS011;57398;52.032;4.376;2024-03-06T12:11:52;1.30;;;0.70;;
70052;SDS011;57398;52.032;4.376;2024-03-06T12:14:40;1.50;;;1.00;;
70052;SDS011;57398;52.032;4.376;2024-03-06T12:17:28;1.30;;;0.80;;
70052;SDS011;57398;52.032;4.376;2024-03-06T12:20:17;1.40;;;0.90;;
70052;SDS011;57398;52.032;4.376;2024-03-06T12:23:06;1.30;;;0.80;;
70052;SDS011;57398;52.032;4.376;2024-03-06T12:26:02;1.40;;;0.90;;
70052;SDS011;57398;52.032;4.376;2024-03-06T12:29:04;1.40;;;0.90;;
70052;SDS011;57398;52.032;4.376;2024-03-06T12:31:53;1.30;;;0.70;;
70052;SDS011;57398;52.032;4.376;2024-03-06T12:34:43;1.40;;;0.90;;
70052;SDS011;57398;52.032;4.376;2024-03-06T12:37:32;1.40;;;0.85;;
70052;SDS011;57398;52.032;4.376;2024-03-06T12:40:22;1.30;;;0.77;;
70052;SDS011;57398;52.032;4.376;2024-03-06T12:43:10;1.40;;;0.88;;
70052;SDS011;57398;52.032;4.376;2024-03-06T12:45:59;1.30;;;0.80;;
70052;SDS011;57398;52.032;4.376;2024-03-06T12:48:51;1.20;;;0.68;;
70052;SDS011;57398;52.032;4.376;2024-03-06T12:51:39;1.30;;;0.80;;
70052;SDS011;57398;52.032;4.376;2024-03-06T12:54:28;1.30;;;0.80;;
70052;SDS011;57398;52.032;4.376;2024-03-06T12:57:16;1.40;;;0.90;;
70052;SDS011;57398;52.032;4.376;2024-03-06T13:00:05;1.20;;;0.70;;
70052;SDS011;57398;52.032;4.376;2024-03-06T13:03:04;1.30;;;0.75;;
70052;SDS011;57398;52.032;4.376;2024-03-06T13:05:53;1.30;;;0.75;;
70052;SDS011;57398;52.032;4.376;2024-03-06T13:08:41;1.30;;;0.70;;
70052;SDS011;57398;52.032;4.376;2024-03-06T13:11:30;1.20;;;0.70;;
70052;SDS011;57398;52.032;4.376;2024-03-06T13:14:18;1.20;;;0.60;;
70052;SDS011;57398;52.032;4.376;2024-03-06T13:17:07;1.30;;;0.73;;
70052;SDS011;57398;52.032;4.376;2024-03-06T13:19:57;1.10;;;0.57;;
70052;SDS011;57398;52.032;4.376;2024-03-06T13:22:45;1.30;;;0.70;;
70052;SDS011;57398;52.032;4.376;2024-03-06T13:25:33;1.30;;;0.80;;
70052;SDS011;57398;52.032;4.376;2024-03-06T13:28:21;1.30;;;0.75;;
70052;SDS011;57398;52.032;4.376;2024-03-06T13:31:10;1.40;;;0.80;;
70052;SDS011;57398;52.032;4.376;2024-03-06T13:33:58;1.30;;;0.80;;
70052;SDS011;57398;52.032;4.376;2024-03-06T13:36:48;1.47;;;0.97;;
70052;SDS011;57398;52.032;4.376;2024-03-06T13:39:36;1.30;;;0.80;;
70052;SDS011;57398;52.032;4.376;2024-03-06T13:42:25;1.23;;;0.70;;
70052;SDS011;57398;52.032;4.376;2024-03-06T13:45:14;1.25;;;0.70;;
70052;SDS011;57398;52.032;4.376;2024-03-06T13:48:02;1.30;;;0.80;;
70052;SDS011;57398;52.032;4.376;2024-03-06T13:51:02;1.30;;;0.70;;
70052;SDS011;57398;52.032;4.376;2024-03-06T13:53:52;1.23;;;0.70;;
70052;SDS011;57398;52.032;4.376;2024-03-06T13:56:40;1.30;;;0.80;;
70052;SDS011;57398;52.032;4.376;2024-03-06T13:59:29;1.27;;;0.70;;
70052;SDS011;57398;52.032;4.376;2024-03-06T14:02:18;1.30;;;0.70;;
70052;SDS011;57398;52.032;4.376;2024-03-06T14:05:07;1.30;;;0.70;;
70052;SDS011;57398;52.032;4.376;2024-03-06T14:07:55;1.10;;;0.50;;
70052;SDS011;57398;52.032;4.376;2024-03-06T14:10:45;1.20;;;0.68;;
70052;SDS011;57398;52.032;4.376;2024-03-06T14:13:33;1.30;;;0.80;;
70052;SDS011;57398;52.032;4.376;2024-03-06T14:16:21;1.20;;;0.60;;
70052;SDS011;57398;52.032;4.376;2024-03-06T14:19:10;1.30;;;0.70;;
70052;SDS011;57398;52.032;4.376;2024-03-06T14:21:58;1.38;;;0.80;;
70052;SDS011;57398;52.032;4.376;2024-03-06T14:24:50;1.40;;;0.80;;
70052;SDS011;57398;52.032;4.376;2024-03-06T14:27:39;1.33;;;0.80;;
70052;SDS011;57398;52.032;4.376;2024-03-06T14:30:28;1.38;;;0.80;;
70052;SDS011;57398;52.032;4.376;2024-03-06T14:33:16;1.30;;;0.73;;
70052;SDS011;57398;52.032;4.376;2024-03-06T14:36:05;1.40;;;0.90;;
70052;SDS011;57398;52.032;4.376;2024-03-06T14:38:53;1.30;;;0.80;;
70052;SDS011;57398;52.032;4.376;2024-03-06T14:41:41;1.30;;;0.77;;
70052;SDS011;57398;52.032;4.376;2024-03-06T14:44:33;1.30;;;0.70;;
70052;SDS011;57398;52.032;4.376;2024-03-06T14:47:21;1.30;;;0.73;;
70052;SDS011;57398;52.032;4.376;2024-03-06T14:50:09;1.40;;;0.80;;
70052;SDS011;57398;52.032;4.376;2024-03-06T14:52:58;1.30;;;0.80;;
70052;SDS011;57398;52.032;4.376;2024-03-06T14:55:47;1.40;;;0.90;;
70052;SDS011;57398;52.032;4.376;2024-03-06T14:58:35;1.48;;;0.98;;
70052;SDS011;57398;52.032;4.376;2024-03-06T15:01:25;1.40;;;0.90;;
70052;SDS011;57398;52.032;4.376;2024-03-06T15:04:13;1.40;;;0.90;;
70052;SDS011;57398;52.032;4.376;2024-03-06T15:07:01;1.42;;;0.90;;
70052;SDS011;57398;52.032;4.376;2024-03-06T15:09:50;1.40;;;0.90;;
70052;SDS011;57398;52.032;4.376;2024-03-06T15:12:38;1.20;;;0.60;;
70052;SDS011;57398;52.032;4.376;2024-03-06T15:15:29;1.10;;;0.60;;
70052;SDS011;57398;52.032;4.376;2024-03-06T15:18:19;1.30;;;0.80;;
70052;SDS011;57398;52.032;4.376;2024-03-06T15:21:07;1.30;;;0.70;;
70052;SDS011;57398;52.032;4.376;2024-03-06T15:23:57;1.30;;;0.80;;
70052;SDS011;57398;52.032;4.376;2024-03-06T15:26:46;1.20;;;0.70;;
70052;SDS011;57398;52.032;4.376;2024-03-06T15:29:34;1.20;;;0.70;;
70052;SDS011;57398;52.032;4.376;2024-03-06T15:32:23;1.30;;;0.70;;
70052;SDS011;57398;52.032;4.376;2024-03-06T15:35:12;1.20;;;0.70;;
70052;SDS011;57398;52.032;4.376;2024-03-06T15:38:00;1.40;;;0.88;;
70052;SDS011;57398;52.032;4.376;2024-03-06T15:40:49;1.20;;;0.60;;
70052;SDS011;57398;52.032;4.376;2024-03-06T15:43:37;1.10;;;0.57;;
70052;SDS011;57398;52.032;4.376;2024-03-06T15:46:25;1.20;;;0.65;;
70052;SDS011;57398;52.032;4.376;2024-03-06T15:49:19;1.30;;;0.80;;
70052;SDS011;57398;52.032;4.376;2024-03-06T15:52:11;1.13;;;0.55;;
70052;SDS011;57398;52.032;4.376;2024-03-06T15:55:00;1.08;;;0.50;;
70052;SDS011;57398;52.032;4.376;2024-03-06T15:57:48;1.23;;;0.70;;
70052;SDS011;57398;52.032;4.376;2024-03-06T16:00:36;1.30;;;0.80;;
70052;SDS011;57398;52.032;4.376;2024-03-06T16:03:24;1.33;;;0.80;;
70052;SDS011;57398;52.032;4.376;2024-03-06T16:06:13;1.00;;;0.45;;
70052;SDS011;57398;52.032;4.376;2024-03-06T16:09:07;1.08;;;0.52;;
70052;SDS011;57398;52.032;4.376;2024-03-06T16:12:00;1.20;;;0.67;;
70052;SDS011;57398;52.032;4.376;2024-03-06T16:14:48;1.10;;;0.57;;
70052;SDS011;57398;52.032;4.376;2024-03-06T16:17:37;1.10;;;0.57;;
70052;SDS011;57398;52.032;4.376;2024-03-06T16:20:25;1.35;;;0.80;;
70052;SDS011;57398;52.032;4.376;2024-03-06T16:23:13;1.30;;;0.70;;
70052;SDS011;57398;52.032;4.376;2024-03-06T16:26:03;1.30;;;0.80;;
70052;SDS011;57398;52.032;4.376;2024-03-06T16:28:53;1.30;;;0.80;;
70052;SDS011;57398;52.032;4.376;2024-03-06T16:31:41;1.25;;;0.70;;
70052;SDS011;57398;52.032;4.376;2024-03-06T16:34:31;1.27;;;0.70;;
70052;SDS011;57398;52.032;4.376;2024-03-06T16:37:20;1.40;;;0.88;;
70052;SDS011;57398;52.032;4.376;2024-03-06T16:40:08;1.23;;;0.70;;
70052;SDS011;57398;52.032;4.376;2024-03-06T16:42:59;1.15;;;0.60;;
70052;SDS011;57398;52.032;4.376;2024-03-06T16:45:47;1.40;;;0.90;;
70052;SDS011;57398;52.032;4.376;2024-03-06T16:48:35;1.20;;;0.68;;
70052;SDS011;57398;52.032;4.376;2024-03-06T16:51:23;1.30;;;0.80;;
70052;SDS011;57398;52.032;4.376;2024-03-06T16:54:13;1.40;;;0.90;;
70052;SDS011;57398;52.032;4.376;2024-03-06T16:57:04;1.42;;;0.93;;
70052;SDS011;57398;52.032;4.376;2024-03-06T16:59:53;1.20;;;0.65;;
70052;SDS011;57398;52.032;4.376;2024-03-06T17:02:41;1.30;;;0.73;;
70052;SDS011;57398;52.032;4.376;2024-03-06T17:05:30;1.30;;;0.77;;
70052;SDS011;57398;52.032;4.376;2024-03-06T17:08:18;1.30;;;0.80;;